createdAt,value
2022-10-31T00:02:44.396Z,333.43
2022-10-31T00:07:51.512Z,333.50
2022-10-31T00:12:59.144Z,334.03
2022-10-31T00:18:05.942Z,334.04
2022-10-31T00:23:13.133Z,334.13
2022-10-31T00:28:20.439Z,334.43
2022-10-31T00:33:27.547Z,334.59
2022-10-31T00:38:34.752Z,334.04
2022-10-31T00:43:41.991Z,334.06
2022-10-31T00:48:49.248Z,334.71
2022-10-31T00:53:56.476Z,334.34
2022-10-31T00:59:03.702Z,334.35
2022-10-31T01:04:10.992Z,334.49
2022-10-31T01:09:18.153Z,334.92
2022-10-31T01:14:25.379Z,335.88
2022-10-31T01:19:32.606Z,335.44
2022-10-31T01:24:39.804Z,335.68
2022-10-31T01:29:47.051Z,336.16
2022-10-31T01:34:54.271Z,335.85
2022-10-31T01:40:01.493Z,336.39
2022-10-31T01:45:08.709Z,337.35
2022-10-31T01:50:15.941Z,337.30
2022-10-31T01:55:25.226Z,337.25
2022-10-31T02:00:30.246Z,337.09
2022-10-31T02:05:37.475Z,337.25
2022-10-31T02:10:44.669Z,337.08
2022-10-31T02:15:51.859Z,337.01
2022-10-31T02:20:59.098Z,337.60
2022-10-31T02:26:06.306Z,338.06
2022-10-31T02:31:13.561Z,338.35
2022-10-31T02:36:20.848Z,337.31
2022-10-31T02:41:28.116Z,338.07
2022-10-31T02:46:35.312Z,337.96
2022-10-31T02:51:42.650Z,337.67
2022-10-31T02:56:50.105Z,338.14
2022-10-31T03:01:57.353Z,338.80
2022-10-31T03:07:04.541Z,338.79
2022-10-31T03:12:11.728Z,338.56
2022-10-31T03:17:18.993Z,338.28
2022-10-31T03:22:26.231Z,338.10
2022-10-31T03:27:34.175Z,338.22
2022-10-31T03:32:41.340Z,338.28
2022-10-31T03:37:48.554Z,338.03
2022-10-31T03:42:55.764Z,338.12
2022-10-31T03:48:03.203Z,337.52
2022-10-31T03:53:10.188Z,337.81
2022-10-31T03:58:17.413Z,338.53
2022-10-31T04:03:24.548Z,338.04
2022-10-31T04:08:31.820Z,338.87
2022-10-31T04:13:38.982Z,339.25
2022-10-31T04:18:46.185Z,339.19
2022-10-31T04:23:53.393Z,339.50
2022-10-31T04:29:00.596Z,339.50
2022-10-31T04:34:07.804Z,339.73
2022-10-31T04:39:15.031Z,339.74
2022-10-31T04:44:22.187Z,340.08
2022-10-31T04:49:29.411Z,341.09
2022-10-31T04:54:36.618Z,341.87
2022-10-31T04:59:43.767Z,341.94
2022-10-31T05:04:50.960Z,342.10
2022-10-31T05:09:58.168Z,341.63
2022-10-31T05:15:05.335Z,342.94
2022-10-31T05:20:12.505Z,343.25
2022-10-31T05:25:19.764Z,343.81
2022-10-31T05:30:26.943Z,344.10
2022-10-31T05:35:34.178Z,345.07
2022-10-31T05:40:41.377Z,345.12
2022-10-31T05:45:48.561Z,344.85
2022-10-31T05:50:55.707Z,345.38
2022-10-31T05:56:02.991Z,345.93
2022-10-31T06:01:10.297Z,345.55
2022-10-31T06:06:17.389Z,345.49
2022-10-31T06:11:24.627Z,346.09
2022-10-31T06:16:31.807Z,345.89
2022-10-31T06:21:39.067Z,345.56
2022-10-31T06:26:46.225Z,345.29
2022-10-31T06:31:53.370Z,345.52
2022-10-31T06:37:00.613Z,345.04
2022-10-31T06:42:07.856Z,345.26
2022-10-31T06:47:15.050Z,344.90
2022-10-31T06:52:22.200Z,344.39
2022-10-31T06:57:29.412Z,344.10
2022-10-31T07:02:36.531Z,344.14
2022-10-31T07:07:43.771Z,344.46
2022-10-31T07:12:50.941Z,344.42
2022-10-31T07:17:58.148Z,344.71
2022-10-31T07:23:05.862Z,344.13
2022-10-31T07:28:12.539Z,343.74
2022-10-31T07:33:19.763Z,343.94
2022-10-31T07:38:26.974Z,343.51
2022-10-31T07:43:34.254Z,342.74
2022-10-31T07:48:41.466Z,343.13
2022-10-31T07:53:48.656Z,343.55
2022-10-31T07:58:55.877Z,343.68
2022-10-31T08:04:03.030Z,343.40
2022-10-31T08:09:10.250Z,343.84
2022-10-31T08:14:17.735Z,344.01
2022-10-31T08:19:24.923Z,343.90
2022-10-31T08:24:32.165Z,344.27
2022-10-31T08:29:39.316Z,344.95
2022-10-31T08:34:46.532Z,345.87
2022-10-31T08:39:53.747Z,346.13
2022-10-31T08:45:01.008Z,346.41
2022-10-31T08:50:08.154Z,346.62
2022-10-31T08:55:15.376Z,347.83
2022-10-31T09:00:22.707Z,347.85
2022-10-31T09:05:29.927Z,347.83
2022-10-31T09:10:37.046Z,347.32
2022-10-31T09:15:44.318Z,347.69
2022-10-31T09:20:51.500Z,347.87
2022-10-31T09:25:58.714Z,348.52
2022-10-31T09:31:05.944Z,348.35
2022-10-31T09:36:13.109Z,348.38
2022-10-31T09:41:21.373Z,347.43
2022-10-31T09:46:28.633Z,347.57
2022-10-31T09:51:35.836Z,347.78
2022-10-31T09:56:43.079Z,348.00
2022-10-31T10:01:50.560Z,348.35
2022-10-31T10:06:58.989Z,348.04
2022-10-31T10:12:06.197Z,348.41
2022-10-31T10:17:13.452Z,347.88
2022-10-31T10:22:20.572Z,348.26
2022-10-31T10:27:27.849Z,347.95
2022-10-31T10:32:35.238Z,348.19
2022-10-31T10:37:42.398Z,349.25
2022-10-31T10:42:49.626Z,349.54
2022-10-31T10:47:57.183Z,349.48
2022-10-31T10:53:04.183Z,349.72
2022-10-31T10:58:11.391Z,350.04
2022-10-31T11:03:18.656Z,350.13
2022-10-31T11:08:27.546Z,350.69
2022-10-31T11:13:33.052Z,351.12
2022-10-31T11:18:40.366Z,351.68
2022-10-31T11:23:47.463Z,351.67
2022-10-31T11:28:54.670Z,352.84
2022-10-31T11:34:01.861Z,352.79
2022-10-31T11:39:09.067Z,353.90
2022-10-31T11:44:16.298Z,353.06
2022-10-31T11:49:23.512Z,353.54
2022-10-31T11:54:30.705Z,353.71
2022-10-31T11:59:37.902Z,354.56
2022-10-31T12:04:45.158Z,354.65
2022-10-31T12:09:52.304Z,355.76
2022-10-31T12:14:59.531Z,355.97
2022-10-31T12:20:06.737Z,355.80
2022-10-31T12:25:13.915Z,356.57
2022-10-31T12:30:21.116Z,357.24
2022-10-31T12:35:28.387Z,357.78
2022-10-31T12:40:35.547Z,359.02
2022-10-31T12:45:42.790Z,359.88
2022-10-31T12:50:50.197Z,359.99
2022-10-31T12:55:57.348Z,359.62
2022-10-31T13:01:04.760Z,360.49
2022-10-31T13:06:11.809Z,361.54
2022-10-31T13:11:19.024Z,362.22
2022-10-31T13:16:26.174Z,363.14
2022-10-31T13:21:33.414Z,362.76
2022-10-31T13:26:40.582Z,363.86
2022-10-31T13:31:47.831Z,364.27
2022-10-31T13:36:55.138Z,364.93
2022-10-31T13:42:02.331Z,365.65
2022-10-31T13:47:09.562Z,366.64
2022-10-31T13:52:16.777Z,366.60
2022-10-31T13:57:23.964Z,366.29
2022-10-31T14:02:31.188Z,367.83
2022-10-31T14:07:38.349Z,367.60
2022-10-31T14:12:45.495Z,367.75
2022-10-31T14:17:52.728Z,369.18
2022-10-31T14:28:07.159Z,369.83
2022-10-31T14:33:14.356Z,369.78
2022-10-31T14:38:21.575Z,370.21
2022-10-31T14:43:28.779Z,369.39
2022-10-31T14:48:35.993Z,370.57
2022-10-31T14:53:43.220Z,371.30
2022-10-31T14:58:50.403Z,372.40
2022-10-31T15:04:21.976Z,372.13
2022-10-31T15:09:05.502Z,371.16
2022-10-31T15:14:12.822Z,372.28
2022-10-31T15:19:19.938Z,372.61
2022-10-31T15:24:27.145Z,372.86
2022-10-31T15:29:34.325Z,373.53
2022-10-31T15:34:41.531Z,372.97
2022-10-31T15:39:48.793Z,373.51
2022-10-31T15:44:56.025Z,373.77
2022-10-31T15:50:03.249Z,372.44
2022-10-31T15:55:10.456Z,372.88
2022-10-31T16:00:17.668Z,373.97
2022-10-31T16:05:24.884Z,373.38
2022-10-31T16:10:32.093Z,374.11
2022-10-31T16:15:39.257Z,373.97
2022-10-31T16:20:46.473Z,373.38
2022-10-31T16:25:53.697Z,373.37
2022-10-31T16:31:00.875Z,373.18
2022-10-31T16:36:22.710Z,373.42
2022-10-31T16:41:15.312Z,372.96
2022-10-31T16:46:22.552Z,372.97
2022-10-31T16:51:29.754Z,373.52
2022-10-31T16:56:37.044Z,372.74
2022-10-31T17:01:44.307Z,372.12
2022-10-31T17:06:51.435Z,372.34
2022-10-31T17:11:58.650Z,373.01
2022-10-31T17:17:05.809Z,372.94
2022-10-31T17:22:13.020Z,372.59
2022-10-31T17:27:21.226Z,373.76
2022-10-31T17:32:28.577Z,373.42
2022-10-31T17:37:36.165Z,373.42
2022-10-31T17:42:44.624Z,373.78
2022-10-31T17:47:52.213Z,373.68
2022-10-31T17:53:00.208Z,373.70
2022-10-31T17:58:07.160Z,374.28
2022-10-31T18:03:14.553Z,375.17
2022-10-31T18:08:21.877Z,375.02
2022-10-31T18:13:29.491Z,375.39
2022-10-31T18:18:37.096Z,375.78
2022-10-31T18:23:44.529Z,374.66
2022-10-31T18:28:52.028Z,374.73
2022-10-31T18:33:59.717Z,375.21
2022-10-31T18:39:07.112Z,375.35
2022-10-31T18:44:14.452Z,375.76
2022-10-31T18:49:21.948Z,376.12
2022-10-31T18:54:29.252Z,377.57
2022-10-31T18:59:36.815Z,376.49
2022-10-31T19:04:44.173Z,376.06
2022-10-31T19:09:52.967Z,376.19
2022-10-31T19:15:00.662Z,377.31
2022-10-31T19:20:07.911Z,377.33
2022-10-31T19:25:15.170Z,377.29
2022-10-31T19:30:22.582Z,377.20
2022-10-31T19:35:29.955Z,377.52
2022-10-31T19:40:37.180Z,377.16
2022-10-31T19:45:44.706Z,377.09
2022-10-31T19:50:57.646Z,377.07
2022-10-31T19:56:00.017Z,377.85
2022-10-31T20:01:08.336Z,378.31
2022-10-31T20:06:15.653Z,377.25
2022-10-31T20:11:23.875Z,378.07
2022-10-31T20:16:31.315Z,377.40
2022-10-31T20:21:38.662Z,377.12
2022-10-31T20:26:45.935Z,376.31
2022-10-31T20:31:53.442Z,375.45
2022-10-31T20:37:00.790Z,373.19
2022-10-31T20:42:08.011Z,371.32
2022-10-31T20:47:15.463Z,369.28
2022-10-31T20:52:23.058Z,367.75
2022-10-31T20:57:30.371Z,368.78
2022-10-31T21:02:37.671Z,366.91
2022-10-31T21:07:44.915Z,365.83
2022-10-31T21:12:52.040Z,366.18
2022-10-31T21:17:59.415Z,365.61
2022-10-31T21:23:06.612Z,365.17
2022-10-31T21:28:13.872Z,365.63
2022-10-31T21:33:21.167Z,365.75
2022-10-31T21:38:28.322Z,365.53
2022-10-31T21:43:35.517Z,366.12
2022-10-31T21:48:42.722Z,365.65
2022-10-31T21:53:49.887Z,366.16
2022-10-31T21:58:57.130Z,365.83
2022-10-31T22:04:04.415Z,365.49
2022-10-31T22:09:11.595Z,365.68
2022-10-31T22:14:18.789Z,366.46
2022-10-31T22:19:26.090Z,367.57
2022-10-31T22:24:33.281Z,367.29
2022-10-31T22:29:40.498Z,368.33
2022-10-31T22:34:47.758Z,368.83
2022-10-31T22:39:55.299Z,369.13
2022-10-31T22:45:02.544Z,369.57
2022-10-31T22:50:09.818Z,369.33
2022-10-31T22:55:17.001Z,369.51
2022-10-31T23:00:24.214Z,370.68
2022-10-31T23:05:31.463Z,372.82
2022-10-31T23:10:38.634Z,373.73
2022-10-31T23:15:45.815Z,373.45
2022-10-31T23:20:53.050Z,373.32
2022-10-31T23:26:00.237Z,372.83
2022-10-31T23:31:07.433Z,373.64
2022-10-31T23:36:14.708Z,374.31
2022-10-31T23:41:21.859Z,374.43
2022-10-31T23:46:29.067Z,375.50
2022-10-31T23:51:36.275Z,376.28
2022-10-31T23:56:43.475Z,375.55
